createdAt,value
2019-04-27T00:00:39.408Z,1004.7
2019-04-27T00:01:44.761Z,1004.7
2019-04-27T00:02:43.468Z,1004.6
2019-04-27T00:03:44.843Z,1004.7
2019-04-27T00:04:44.699Z,1004.7
2019-04-27T00:05:46.050Z,1004.6
2019-04-27T00:06:47.412Z,1004.6
2019-04-27T00:07:51.511Z,1004.6
2019-04-27T00:08:50.084Z,1004.6
2019-04-27T00:09:53.015Z,1004.7
2019-04-27T00:10:53.252Z,1004.7
2019-04-27T00:11:54.072Z,1004.7
2019-04-27T00:12:57.183Z,1004.6
2019-04-27T00:13:56.764Z,1004.7
2019-04-27T00:14:58.112Z,1004.6
2019-04-27T00:15:59.466Z,1004.6
2019-04-27T00:17:00.819Z,1004.7
2019-04-27T00:18:03.561Z,1004.7
2019-04-27T00:19:03.918Z,1004.7
2019-04-27T00:20:04.805Z,1004.7
2019-04-27T00:21:06.168Z,1004.7
2019-04-27T00:22:07.513Z,1004.7
2019-04-27T00:23:08.869Z,1004.7
2019-04-27T00:24:10.215Z,1004.7
2019-04-27T00:25:13.002Z,1004.7
2019-04-27T00:26:13.104Z,1004.7
2019-04-27T00:27:14.196Z,1004.7
2019-04-27T00:28:15.554Z,1004.7
2019-04-27T00:29:16.913Z,1004.7
2019-04-27T00:30:18.276Z,1004.7
2019-04-27T00:31:19.626Z,1004.7
2019-04-27T00:32:20.991Z,1004.7
2019-04-27T00:33:23.719Z,1004.6
2019-04-27T00:34:23.703Z,1004.6
2019-04-27T00:35:25.031Z,1004.7
2019-04-27T00:36:26.389Z,1004.7
2019-04-27T00:37:27.742Z,1004.7
2019-04-27T00:38:29.095Z,1004.7
2019-04-27T00:39:30.450Z,1004.7
2019-04-27T00:40:33.432Z,1004.6
2019-04-27T00:41:33.980Z,1004.6
2019-04-27T00:42:35.726Z,1004.6
2019-04-27T00:43:35.743Z,1004.6
2019-04-27T00:44:37.103Z,1004.7
2019-04-27T00:45:38.446Z,1004.6
2019-04-27T00:46:39.796Z,1004.6
2019-04-27T00:47:53.785Z,1004.6
2019-04-27T00:48:43.278Z,1004.6
2019-04-27T00:49:44.356Z,1004.6
2019-04-27T00:50:45.098Z,1004.6
2019-04-27T00:51:46.458Z,1004.5
2019-04-27T00:52:47.805Z,1004.6
2019-04-27T00:53:49.168Z,1004.5
2019-04-27T00:54:50.517Z,1004.5
2019-04-27T00:55:53.537Z,1004.5
2019-04-27T00:56:53.181Z,1004.5
2019-04-27T00:57:54.535Z,1004.5
2019-04-27T00:58:55.886Z,1004.5
2019-04-27T00:59:57.238Z,1004.5
2019-04-27T01:00:58.581Z,1004.5
2019-04-27T01:01:59.938Z,1004.5
2019-04-27T01:03:01.299Z,1004.5
2019-04-27T01:04:03.754Z,1004.5
2019-04-27T01:05:05.770Z,1004.5
2019-04-27T01:06:05.294Z,1004.4
2019-04-27T01:07:06.643Z,1004.5
2019-04-27T01:08:08.000Z,1004.4
2019-04-27T01:09:09.349Z,1004.5
2019-04-27T01:10:10.731Z,1004.4
2019-04-27T01:11:12.064Z,1004.4
2019-04-27T01:12:13.597Z,1004.4
2019-04-27T01:13:14.738Z,1004.4
2019-04-27T01:14:16.083Z,1004.4
2019-04-27T01:15:17.439Z,1004.4
2019-04-27T01:16:21.948Z,1004.4
2019-04-27T01:17:20.114Z,1004.4
2019-04-27T01:18:21.494Z,1004.4
2019-04-27T01:19:22.854Z,1004.4
2019-04-27T01:20:24.210Z,1004.4
2019-04-27T01:21:25.565Z,1004.4
2019-04-27T01:22:26.906Z,1004.3
2019-04-27T01:23:29.421Z,1004.4
2019-04-27T01:24:30.378Z,1004.4
2019-04-27T01:25:30.908Z,1004.3
2019-04-27T01:26:32.259Z,1004.3
2019-04-27T01:27:33.609Z,1004.3
2019-04-27T01:28:34.958Z,1004.4
2019-04-27T01:29:36.314Z,1004.3
2019-04-27T01:30:39.106Z,1004.3
2019-04-27T01:31:39.607Z,1004.3
2019-04-27T01:32:40.296Z,1004.3
2019-04-27T01:33:41.656Z,1004.3
2019-04-27T01:34:43.001Z,1004.3
2019-04-27T01:35:44.351Z,1004.3
2019-04-27T01:36:45.720Z,1004.3
2019-04-27T01:37:48.680Z,1004.3
2019-04-27T01:38:49.589Z,1004.3
2019-04-27T01:39:50.404Z,1004.3
2019-04-27T01:40:51.014Z,1004.3
2019-04-27T01:41:52.359Z,1004.3
2019-04-27T01:42:53.709Z,1004.3
2019-04-27T01:43:55.055Z,1004.3
2019-04-27T01:44:56.415Z,1004.2
2019-04-27T01:45:58.698Z,1004.3
2019-04-27T01:46:59.871Z,1004.2
2019-04-27T01:48:00.410Z,1004.2
2019-04-27T01:49:01.757Z,1004.2
2019-04-27T01:50:03.097Z,1004.2
2019-04-27T01:51:04.457Z,1004.2
2019-04-27T01:52:05.822Z,1004.2
2019-04-27T01:53:08.846Z,1004.2
2019-04-27T01:54:10.226Z,1004.2
2019-04-27T01:55:09.808Z,1004.2
2019-04-27T01:56:11.147Z,1004.2
2019-04-27T01:57:12.505Z,1004.2
2019-04-27T01:58:13.860Z,1004.2
2019-04-27T01:59:15.215Z,1004.1
2019-04-27T02:00:16.557Z,1004.1
2019-04-27T02:01:18.709Z,1004.2
2019-04-27T02:02:19.241Z,1004.1
2019-04-27T02:03:20.598Z,1004.2
2019-04-27T02:04:21.943Z,1004.2
2019-04-27T02:05:23.295Z,1004.1
2019-04-27T02:06:24.648Z,1004.1
2019-04-27T02:07:25.993Z,1004.2
2019-04-27T02:08:28.555Z,1004.1
2019-04-27T02:09:28.906Z,1004.2
2019-04-27T02:10:29.977Z,1004.2
2019-04-27T02:11:31.330Z,1004.1
2019-04-27T02:12:32.672Z,1004.1
2019-04-27T02:13:34.155Z,1004.1
2019-04-27T02:14:35.502Z,1004.1
2019-04-27T02:15:36.853Z,1004.1
2019-04-27T02:16:39.170Z,1004.1
2019-04-27T02:17:39.518Z,1004.1
2019-04-27T02:18:40.871Z,1004.1
2019-04-27T02:19:42.217Z,1004.1
2019-04-27T02:20:44.512Z,1004.2
2019-04-27T02:21:44.888Z,1004.1
2019-04-27T02:22:46.233Z,1004.1
2019-04-27T02:23:47.591Z,1004.1
2019-04-27T02:24:49.239Z,1004.1
2019-04-27T02:26:30.050Z,1004.1
2019-04-27T02:27:31.162Z,1004.1
2019-04-27T02:28:32.541Z,1004.1
2019-04-27T02:29:33.891Z,1004.1
2019-04-27T02:30:35.254Z,1004.1
2019-04-27T02:31:36.603Z,1004.1
2019-04-27T02:32:39.744Z,1004.1
2019-04-27T02:33:40.350Z,1004.1
2019-04-27T02:34:40.588Z,1004.1
2019-04-27T02:35:42.206Z,1004.1
2019-04-27T02:36:43.262Z,1004.1
2019-04-27T02:37:44.616Z,1004.1
2019-04-27T02:38:45.984Z,1004.1
2019-04-27T02:39:49.800Z,1004.1
2019-04-27T02:40:49.595Z,1004.0
2019-04-27T02:41:51.811Z,1004.0
2019-04-27T02:42:54.477Z,1004.0
2019-04-27T02:43:52.578Z,1004.1
2019-04-27T02:44:53.929Z,1004.1
2019-04-27T02:45:55.275Z,1004.0
2019-04-27T02:46:56.627Z,1004.0
2019-04-27T02:47:59.843Z,1004.0
2019-04-27T02:49:03.188Z,1004.0
2019-04-27T02:50:00.786Z,1004.0
2019-04-27T02:51:01.920Z,1004.0
2019-04-27T02:52:03.276Z,1004.1
2019-04-27T02:53:04.615Z,1004.1
2019-04-27T02:54:05.969Z,1004.0
2019-04-27T02:55:09.270Z,1004.1
2019-04-27T02:56:10.236Z,1004.1
2019-04-27T02:57:10.305Z,1004.1
2019-04-27T02:58:13.054Z,1004.1
2019-04-27T02:59:12.619Z,1004.1
2019-04-27T03:00:13.975Z,1004.0
2019-04-27T03:01:15.325Z,1004.1
2019-04-27T03:02:19.426Z,1004.1
2019-04-27T03:03:20.217Z,1004.0
2019-04-27T03:04:20.409Z,1004.0
2019-04-27T03:05:20.721Z,1004.0
2019-04-27T03:06:22.088Z,1004.0
2019-04-27T03:07:23.429Z,1004.0
2019-04-27T03:08:24.794Z,1004.0
2019-04-27T03:09:26.140Z,1004.0
2019-04-27T03:10:29.631Z,1004.0
2019-04-27T03:11:30.650Z,1004.0
2019-04-27T03:12:30.152Z,1004.1
2019-04-27T03:13:31.500Z,1004.1
2019-04-27T03:14:36.051Z,1004.1
2019-04-27T03:15:34.160Z,1004.1
2019-04-27T03:16:35.528Z,1004.0
2019-04-27T03:17:39.238Z,1004.0
2019-04-27T03:18:40.384Z,1004.0
2019-04-27T03:19:40.049Z,1004.0
2019-04-27T03:20:40.825Z,1004.0
2019-04-27T03:21:42.178Z,1004.0
2019-04-27T03:22:43.534Z,1003.9
2019-04-27T03:23:44.888Z,1004.0
2019-04-27T03:24:46.231Z,1004.0
2019-04-27T03:25:50.364Z,1004.0
2019-04-27T03:26:50.004Z,1004.0
2019-04-27T03:27:50.404Z,1004.0
2019-04-27T03:28:51.532Z,1004.0
2019-04-27T03:29:52.884Z,1004.0
2019-04-27T03:30:54.238Z,1004.0
2019-04-27T03:31:55.583Z,1004.0
2019-04-27T03:32:58.812Z,1004.0
2019-04-27T03:34:00.309Z,1004.0
2019-04-27T03:35:02.697Z,1004.0
2019-04-27T03:36:02.559Z,1004.0
2019-04-27T03:37:02.220Z,1004.0
2019-04-27T03:38:03.586Z,1004.0
2019-04-27T03:39:04.919Z,1004.0
2019-04-27T03:40:06.270Z,1004.0
2019-04-27T03:41:09.358Z,1004.0
2019-04-27T03:42:10.390Z,1004.0
2019-04-27T03:43:11.714Z,1004.0
2019-04-27T03:44:11.563Z,1004.0
2019-04-27T03:45:13.052Z,1004.0
2019-04-27T03:46:14.411Z,1004.0
2019-04-27T03:47:15.769Z,1004.0
2019-04-27T03:48:17.107Z,1004.0
2019-04-27T03:49:29.388Z,1004.0
2019-04-27T03:50:20.339Z,1004.0
2019-04-27T03:51:21.083Z,1004.0
2019-04-27T03:52:22.464Z,1004.0
2019-04-27T03:53:23.815Z,1004.0
2019-04-27T03:54:25.168Z,1004.0
2019-04-27T03:55:26.514Z,1004.0
2019-04-27T03:56:30.022Z,1004.0
2019-04-27T03:57:29.746Z,1004.0
2019-04-27T03:58:30.636Z,1003.9
2019-04-27T03:59:32.554Z,1004.0
2019-04-27T04:00:33.159Z,1004.0
2019-04-27T04:01:34.518Z,1003.9
2019-04-27T04:02:35.880Z,1003.9
2019-04-27T04:03:39.156Z,1003.9
2019-04-27T04:04:40.525Z,1003.9
2019-04-27T04:05:39.995Z,1003.9
2019-04-27T04:06:41.191Z,1003.9
2019-04-27T04:07:42.539Z,1003.9
2019-04-27T04:08:43.894Z,1003.9
2019-04-27T04:09:45.260Z,1004.0
2019-04-27T04:10:46.609Z,1004.0
2019-04-27T04:11:49.134Z,1003.9
2019-04-27T04:12:50.106Z,1003.9
2019-04-27T04:13:50.612Z,1003.9
2019-04-27T04:14:51.968Z,1004.0
2019-04-27T04:15:53.373Z,1003.9
2019-04-27T04:16:58.862Z,1003.9
2019-04-27T04:17:56.037Z,1003.9
2019-04-27T04:18:57.410Z,1003.9
2019-04-27T04:20:01.227Z,1003.9
2019-04-27T04:21:00.476Z,1003.9
2019-04-27T04:22:01.400Z,1003.9
2019-04-27T04:23:03.410Z,1003.9
2019-04-27T04:24:04.090Z,1003.9
2019-04-27T04:25:05.452Z,1003.9
2019-04-27T04:26:06.801Z,1003.9
2019-04-27T04:27:09.697Z,1003.9
2019-04-27T04:28:09.622Z,1003.9
2019-04-27T04:29:10.812Z,1003.9
2019-04-27T04:30:12.589Z,1003.8
2019-04-27T04:31:13.933Z,1003.8
2019-04-27T04:32:14.888Z,1003.8
2019-04-27T04:33:16.234Z,1003.8
2019-04-27T04:34:19.558Z,1003.8
2019-04-27T04:35:21.203Z,1003.8
2019-04-27T04:36:20.355Z,1003.8
2019-04-27T04:37:21.558Z,1003.9
2019-04-27T04:38:22.921Z,1003.9
2019-04-27T04:39:24.278Z,1003.9
2019-04-27T04:40:25.627Z,1003.9
2019-04-27T04:41:27.010Z,1003.8
2019-04-27T04:42:29.985Z,1003.9
2019-04-27T04:43:29.713Z,1003.9
2019-04-27T04:44:31.070Z,1003.9
2019-04-27T04:45:32.412Z,1003.9
2019-04-27T04:46:33.839Z,1003.8
2019-04-27T04:47:35.187Z,1003.8
2019-04-27T04:48:36.530Z,1003.8
2019-04-27T04:49:39.602Z,1003.9
2019-04-27T04:50:39.647Z,1003.9
2019-04-27T04:51:40.577Z,1003.9
2019-04-27T04:52:42.415Z,1003.9
2019-04-27T04:53:43.255Z,1003.9
2019-04-27T04:54:44.627Z,1003.9
2019-04-27T04:55:45.978Z,1003.8
2019-04-27T04:56:48.908Z,1003.9
2019-04-27T04:57:49.337Z,1003.9
2019-04-27T04:58:49.988Z,1003.9
2019-04-27T04:59:51.576Z,1003.9
2019-04-27T05:00:52.684Z,1003.9
2019-04-27T05:01:54.084Z,1003.9
2019-04-27T05:02:55.429Z,1003.8
2019-04-27T05:03:56.804Z,1003.9
2019-04-27T05:04:59.072Z,1003.8
2019-04-27T05:05:59.512Z,1003.9
2019-04-27T05:07:00.890Z,1003.9
2019-04-27T05:08:02.234Z,1003.9
2019-04-27T05:09:03.599Z,1003.9
2019-04-27T05:10:04.953Z,1003.9
2019-04-27T05:11:06.314Z,1003.9
2019-04-27T05:12:08.781Z,1003.9
2019-04-27T05:13:09.380Z,1004.0
2019-04-27T05:14:10.335Z,1004.0
2019-04-27T05:15:11.680Z,1004.1
2019-04-27T05:16:13.044Z,1004.0
2019-04-27T05:17:14.410Z,1004.0
2019-04-27T05:18:15.758Z,1004.0
2019-04-27T05:19:18.743Z,1004.0
2019-04-27T05:20:24.376Z,1004.0
2019-04-27T05:21:19.804Z,1004.1
2019-04-27T05:22:21.159Z,1004.1
2019-04-27T05:23:22.523Z,1004.2
2019-04-27T05:24:23.875Z,1004.2
2019-04-27T05:25:25.232Z,1004.1
2019-04-27T05:26:26.597Z,1004.1
2019-04-27T05:27:29.009Z,1004.1
2019-04-27T05:28:29.881Z,1004.1
2019-04-27T05:29:30.597Z,1004.2
2019-04-27T05:30:31.964Z,1004.2
2019-04-27T05:31:33.349Z,1004.2
2019-04-27T05:32:34.704Z,1004.2
2019-04-27T05:33:36.068Z,1004.2
2019-04-27T05:34:39.329Z,1004.2
2019-04-27T05:35:40.855Z,1004.2
2019-04-27T05:36:41.667Z,1004.2
2019-04-27T05:37:44.276Z,1004.2
2019-04-27T05:38:45.843Z,1004.2
2019-04-27T05:39:44.110Z,1004.2
2019-04-27T05:40:45.480Z,1004.2
2019-04-27T05:41:46.847Z,1004.2
2019-04-27T05:42:48.850Z,1004.2
2019-04-27T05:43:49.533Z,1004.2
2019-04-27T05:44:50.894Z,1004.2
2019-04-27T05:45:53.216Z,1004.1
2019-04-27T05:46:53.695Z,1004.1
2019-04-27T05:47:54.982Z,1004.1
2019-04-27T05:48:59.919Z,1004.1
2019-04-27T05:49:58.857Z,1004.1
2019-04-27T05:51:01.755Z,1004.0
2019-04-27T05:52:00.303Z,1004.0
2019-04-27T05:53:02.389Z,1004.0
2019-04-27T05:54:03.750Z,1004.0
2019-04-27T05:55:05.116Z,1004.0
2019-04-27T05:56:06.473Z,1004.0
2019-04-27T05:57:09.393Z,1004.0
2019-04-27T05:58:09.395Z,1004.0
2019-04-27T05:59:10.483Z,1003.9
2019-04-27T06:00:11.849Z,1003.9
2019-04-27T06:01:13.218Z,1003.9
2019-04-27T06:02:14.565Z,1003.9
2019-04-27T06:03:15.935Z,1003.9
2019-04-27T06:04:19.083Z,1003.9
2019-04-27T06:05:18.991Z,1003.9
2019-04-27T06:06:19.949Z,1003.9
2019-04-27T06:07:21.309Z,1004.0
2019-04-27T06:08:22.668Z,1004.0
2019-04-27T06:09:24.024Z,1004.0
2019-04-27T06:10:25.389Z,1004.0
2019-04-27T06:11:28.184Z,1004.2
2019-04-27T06:12:29.404Z,1004.3
2019-04-27T06:13:31.018Z,1004.5
2019-04-27T06:14:30.774Z,1004.7
2019-04-27T06:15:32.129Z,1004.7
2019-04-27T06:16:33.493Z,1004.5
2019-04-27T06:17:34.859Z,1004.2
2019-04-27T06:18:36.211Z,1004.2
2019-04-27T06:19:38.980Z,1004.3
2019-04-27T06:20:50.444Z,1004.5
2019-04-27T06:21:40.333Z,1004.7
2019-04-27T06:22:41.582Z,1004.7
2019-04-27T06:23:42.942Z,1004.7
2019-04-27T06:24:44.303Z,1004.7
2019-04-27T06:25:45.669Z,1004.7
2019-04-27T06:26:47.037Z,1004.4
2019-04-27T06:27:49.542Z,1004.2
2019-04-27T06:28:50.470Z,1004.3
2019-04-27T06:29:51.052Z,1004.4
2019-04-27T06:30:52.414Z,1004.4
2019-04-27T06:31:53.822Z,1004.1
2019-04-27T06:32:55.184Z,1004.2
2019-04-27T06:33:56.573Z,1004.1
2019-04-27T06:34:59.023Z,1004.5
2019-04-27T06:35:59.457Z,1004.4
2019-04-27T06:37:00.604Z,1004.5
2019-04-27T06:38:01.969Z,1004.4
2019-04-27T06:39:03.329Z,1004.4
2019-04-27T06:40:04.695Z,1004.4
2019-04-27T06:41:06.066Z,1004.4
2019-04-27T06:42:16.721Z,1004.4
2019-04-27T06:43:08.785Z,1004.4
2019-04-27T06:44:11.458Z,1004.5
2019-04-27T06:45:11.457Z,1004.6
2019-04-27T06:46:12.812Z,1004.6
2019-04-27T06:47:14.180Z,1004.7
2019-04-27T06:48:15.544Z,1004.8
2019-04-27T06:49:16.920Z,1005.1
2019-04-27T06:50:19.500Z,1005.1
2019-04-27T06:51:19.667Z,1005.0
2019-04-27T06:52:20.983Z,1005.1
2019-04-27T06:53:22.353Z,1005.2
2019-04-27T06:54:23.720Z,1004.9
2019-04-27T06:55:25.090Z,1004.5
2019-04-27T06:56:26.462Z,1004.4
2019-04-27T06:57:29.137Z,1004.4
2019-04-27T06:58:29.344Z,1004.3
2019-04-27T06:59:30.509Z,1004.3
2019-04-27T07:00:31.874Z,1004.3
2019-04-27T07:01:33.234Z,1004.2
2019-04-27T07:02:34.648Z,1004.2
2019-04-27T07:03:36.014Z,1004.1
2019-04-27T07:04:38.939Z,1004.0
2019-04-27T07:05:38.808Z,1004.0
2019-04-27T07:06:52.790Z,1003.9
2019-04-27T07:07:41.388Z,1004.0
2019-04-27T07:08:42.752Z,1004.1
2019-04-27T07:09:44.124Z,1004.1
2019-04-27T07:10:45.490Z,1004.1
2019-04-27T07:11:46.864Z,1004.2
2019-04-27T07:12:49.096Z,1004.2
2019-04-27T07:13:49.794Z,1004.3
2019-04-27T07:14:54.886Z,1004.2
2019-04-27T07:15:52.210Z,1004.3
2019-04-27T07:16:53.586Z,1004.2
2019-04-27T07:17:54.956Z,1004.3
2019-04-27T07:18:56.320Z,1004.0
2019-04-27T07:19:59.257Z,1004.0
2019-04-27T07:20:59.047Z,1003.9
2019-04-27T07:22:00.414Z,1004.0
2019-04-27T07:23:01.775Z,1003.8
2019-04-27T07:24:03.163Z,1003.9
2019-04-27T07:25:04.520Z,1003.8
2019-04-27T07:26:05.897Z,1003.8
2019-04-27T07:27:07.253Z,1003.9
2019-04-27T07:28:09.151Z,1003.8
2019-04-27T07:29:09.967Z,1003.9
2019-04-27T07:30:11.728Z,1003.8
2019-04-27T07:31:12.659Z,1003.9
2019-04-27T07:32:14.030Z,1003.9
2019-04-27T07:33:15.395Z,1003.9
2019-04-27T07:34:16.760Z,1003.9
2019-04-27T07:35:19.505Z,1003.9
2019-04-27T07:36:19.452Z,1003.8
2019-04-27T07:37:20.824Z,1003.9
2019-04-27T07:38:22.177Z,1003.9
2019-04-27T07:39:23.553Z,1003.9
2019-04-27T07:40:24.917Z,1003.9
2019-04-27T07:41:26.284Z,1003.9
2019-04-27T07:42:30.296Z,1003.9
2019-04-27T07:43:29.284Z,1003.9
2019-04-27T07:44:30.308Z,1003.9
2019-04-27T07:45:31.669Z,1003.9
2019-04-27T07:46:33.034Z,1003.9
2019-04-27T07:47:34.411Z,1003.9
2019-04-27T07:48:35.775Z,1003.8
2019-04-27T07:49:39.002Z,1003.8
2019-04-27T07:50:39.033Z,1003.7
2019-04-27T07:51:39.801Z,1003.7
2019-04-27T07:52:41.176Z,1003.7
2019-04-27T07:53:42.528Z,1003.7
2019-04-27T07:54:43.897Z,1003.8
2019-04-27T07:55:45.258Z,1003.8
2019-04-27T07:56:46.624Z,1003.7
2019-04-27T07:57:49.352Z,1003.8
2019-04-27T07:58:49.447Z,1003.8
2019-04-27T07:59:50.644Z,1003.8
2019-04-27T08:00:52.008Z,1003.8
2019-04-27T08:01:53.378Z,1003.8
2019-04-27T08:02:54.747Z,1003.8
2019-04-27T08:03:56.103Z,1003.8
2019-04-27T08:04:57.479Z,1003.9
2019-04-27T08:05:58.938Z,1003.8
2019-04-27T08:07:00.139Z,1003.8
2019-04-27T08:08:01.496Z,1003.8
2019-04-27T08:09:02.869Z,1003.8
2019-04-27T08:10:04.229Z,1003.7
2019-04-27T08:11:05.591Z,1003.7
2019-04-27T08:12:06.953Z,1003.7
2019-04-27T08:13:09.500Z,1003.8
2019-04-27T08:14:09.644Z,1003.8
2019-04-27T08:15:11.000Z,1003.8
2019-04-27T08:16:12.375Z,1003.7
2019-04-27T08:17:13.744Z,1003.7
2019-04-27T08:18:15.108Z,1003.7
2019-04-27T08:19:16.465Z,1003.7
2019-04-27T08:20:19.222Z,1003.7
2019-04-27T08:21:19.170Z,1003.7
2019-04-27T08:22:20.529Z,1003.7
2019-04-27T08:23:21.909Z,1003.7
2019-04-27T08:24:23.245Z,1003.8
2019-04-27T08:25:24.628Z,1003.8
2019-04-27T08:27:05.511Z,1003.7
2019-04-27T08:28:08.525Z,1003.7
2019-04-27T08:29:08.600Z,1003.7
2019-04-27T08:30:09.537Z,1003.7
2019-04-27T08:31:10.890Z,1003.7
2019-04-27T08:32:12.250Z,1003.6
2019-04-27T08:33:13.614Z,1003.6
2019-04-27T08:34:14.983Z,1003.7
2019-04-27T08:35:16.352Z,1003.7
2019-04-27T08:36:18.931Z,1003.7
2019-04-27T08:37:19.042Z,1003.7
2019-04-27T08:38:20.669Z,1003.7
2019-04-27T08:39:21.714Z,1003.7
2019-04-27T08:40:23.081Z,1003.8
2019-04-27T08:41:24.445Z,1003.7
2019-04-27T08:42:25.795Z,1003.8
2019-04-27T08:43:28.844Z,1003.7
2019-04-27T08:44:29.216Z,1003.7
2019-04-27T08:45:29.815Z,1003.8
2019-04-27T08:46:31.182Z,1003.7
2019-04-27T08:47:32.536Z,1003.7
2019-04-27T08:48:36.734Z,1003.7
2019-04-27T08:49:35.224Z,1003.7
2019-04-27T08:50:37.791Z,1003.7
2019-04-27T08:51:39.200Z,1003.7
2019-04-27T08:52:41.628Z,1003.8
2019-04-27T08:53:40.558Z,1003.7
2019-04-27T08:54:41.924Z,1003.7
2019-04-27T08:55:43.291Z,1003.7
2019-04-27T08:56:44.679Z,1003.7
2019-04-27T08:57:46.030Z,1003.6
2019-04-27T08:58:47.387Z,1003.6
2019-04-27T08:59:48.953Z,1003.7
2019-04-27T09:00:50.076Z,1003.6
2019-04-27T09:01:51.438Z,1003.7
2019-04-27T09:02:52.802Z,1003.7
2019-04-27T09:03:54.165Z,1003.6
2019-04-27T09:04:55.539Z,1003.7
2019-04-27T09:05:56.919Z,1003.7
2019-04-27T09:06:59.538Z,1003.6
2019-04-27T09:07:59.804Z,1003.6
2019-04-27T09:09:00.936Z,1003.6
2019-04-27T09:10:02.295Z,1003.7
2019-04-27T09:11:03.692Z,1003.7
2019-04-27T09:12:05.052Z,1003.6
2019-04-27T09:13:06.425Z,1003.6
2019-04-27T09:14:08.948Z,1003.6
2019-04-27T09:15:09.983Z,1003.6
2019-04-27T09:16:11.122Z,1003.6
2019-04-27T09:17:11.770Z,1003.6
2019-04-27T09:18:13.141Z,1003.6
2019-04-27T09:19:14.501Z,1003.6
2019-04-27T09:20:15.881Z,1003.5
2019-04-27T09:21:19.077Z,1003.5
2019-04-27T09:22:20.524Z,1003.5
2019-04-27T09:23:19.919Z,1003.5
2019-04-27T09:24:21.281Z,1003.4
2019-04-27T09:25:22.639Z,1003.5
2019-04-27T09:26:24.017Z,1003.5
2019-04-27T09:27:25.386Z,1003.5
2019-04-27T09:28:26.770Z,1003.4
2019-04-27T09:29:29.803Z,1003.5
2019-04-27T09:30:29.797Z,1003.5
2019-04-27T09:31:30.792Z,1003.4
2019-04-27T09:32:32.150Z,1003.4
2019-04-27T09:33:33.722Z,1003.4
2019-04-27T09:34:36.660Z,1003.4
2019-04-27T09:35:36.360Z,1003.4
2019-04-27T09:36:37.813Z,1003.4
2019-04-27T09:37:39.161Z,1003.3
2019-04-27T09:38:40.526Z,1003.3
2019-04-27T09:39:41.889Z,1003.3
2019-04-27T09:40:43.243Z,1003.3
2019-04-27T09:41:46.022Z,1003.3
2019-04-27T09:42:46.343Z,1003.3
2019-04-27T09:43:47.321Z,1003.4
2019-04-27T09:44:48.710Z,1003.4
2019-04-27T09:45:50.424Z,1003.3
2019-04-27T09:46:52.116Z,1003.4
2019-04-27T09:47:53.721Z,1003.3
2019-04-27T09:48:56.460Z,1003.4
2019-04-27T09:49:57.223Z,1003.3
2019-04-27T09:50:58.886Z,1003.3
2019-04-27T09:52:00.489Z,1003.4
2019-04-27T09:53:02.191Z,1003.4
2019-04-27T09:54:05.399Z,1003.2
2019-04-27T09:55:06.578Z,1003.2
2019-04-27T09:56:07.186Z,1003.3
2019-04-27T09:57:08.539Z,1003.2
2019-04-27T09:58:09.956Z,1003.2
2019-04-27T09:59:11.397Z,1003.2
2019-04-27T10:00:12.813Z,1003.1
2019-04-27T10:01:15.884Z,1003.1
2019-04-27T10:02:16.527Z,1003.2
2019-04-27T10:03:16.886Z,1003.2
2019-04-27T10:04:18.910Z,1003.3
2019-04-27T10:05:20.300Z,1003.2
2019-04-27T10:06:21.710Z,1003.3
2019-04-27T10:07:23.096Z,1003.3
2019-04-27T10:08:25.985Z,1003.3
2019-04-27T10:09:26.365Z,1003.3
2019-04-27T10:10:27.206Z,1003.2
2019-04-27T10:11:28.570Z,1003.3
2019-04-27T10:12:29.935Z,1003.3
2019-04-27T10:13:31.307Z,1003.3
2019-04-27T10:14:32.670Z,1003.4
2019-04-27T10:15:35.614Z,1003.3
2019-04-27T10:16:36.630Z,1003.3
2019-04-27T10:17:37.125Z,1003.3
2019-04-27T10:18:38.491Z,1003.3
2019-04-27T10:19:39.875Z,1003.4
2019-04-27T10:20:41.259Z,1003.4
2019-04-27T10:21:42.605Z,1003.4
2019-04-27T10:22:44.078Z,1003.3
2019-04-27T10:23:46.858Z,1003.3
2019-04-27T10:24:46.684Z,1003.3
2019-04-27T10:25:48.047Z,1003.3
2019-04-27T10:26:49.410Z,1003.4
2019-04-27T10:27:50.771Z,1003.4
2019-04-27T10:28:52.146Z,1003.3
2019-04-27T10:29:53.510Z,1003.4
2019-04-27T10:30:55.741Z,1003.4
2019-04-27T10:31:56.501Z,1003.3
2019-04-27T10:32:57.526Z,1003.3
2019-04-27T10:33:58.891Z,1003.3
2019-04-27T10:35:00.253Z,1003.3
2019-04-27T10:36:01.623Z,1003.2
2019-04-27T10:37:03.020Z,1003.2
2019-04-27T10:38:04.391Z,1003.3
2019-04-27T10:39:05.760Z,1003.2
2019-04-27T10:40:07.115Z,1003.2
2019-04-27T10:41:08.487Z,1003.2
2019-04-27T10:42:09.865Z,1003.0
2019-04-27T10:43:11.236Z,1003.0
2019-04-27T10:44:12.609Z,1003.0
2019-04-27T10:45:13.968Z,1003.0
2019-04-27T10:46:15.680Z,1003.0
2019-04-27T10:47:16.678Z,1002.9
2019-04-27T10:48:18.120Z,1003.0
2019-04-27T10:49:19.452Z,1003.0
2019-04-27T10:50:20.908Z,1002.9
2019-04-27T10:51:22.418Z,1002.9
2019-04-27T10:52:23.900Z,1003.0
2019-04-27T10:53:26.728Z,1002.9
2019-04-27T10:54:26.686Z,1002.9
2019-04-27T10:55:28.002Z,1002.9
2019-04-27T10:56:29.782Z,1002.9
2019-04-27T10:57:31.141Z,1002.9
2019-04-27T10:58:32.955Z,1002.8
2019-04-27T10:59:35.913Z,1002.8
2019-04-27T11:00:36.785Z,1002.9
2019-04-27T11:01:37.795Z,1002.8
2019-04-27T11:02:39.211Z,1003.0
2019-04-27T11:03:40.763Z,1002.9
2019-04-27T11:04:42.120Z,1002.9
2019-04-27T11:05:43.476Z,1002.9
2019-04-27T11:06:45.093Z,1002.9
2019-04-27T11:07:46.466Z,1002.9
2019-04-27T11:08:48.344Z,1002.8
2019-04-27T11:09:49.253Z,1002.8
2019-04-27T11:10:50.618Z,1002.9
2019-04-27T11:11:52.048Z,1002.9
2019-04-27T11:12:53.481Z,1002.9
2019-04-27T11:13:56.631Z,1002.9
2019-04-27T11:14:56.344Z,1003.0
2019-04-27T11:15:57.848Z,1002.8
2019-04-27T11:16:59.336Z,1002.7
2019-04-27T11:18:00.909Z,1002.8
2019-04-27T11:19:02.511Z,1002.8
2019-04-27T11:20:03.983Z,1002.8
2019-04-27T11:21:05.787Z,1002.9
2019-04-27T11:22:07.457Z,1002.9
2019-04-27T11:23:12.163Z,1002.9
2019-04-27T11:24:10.082Z,1002.8
2019-04-27T11:25:11.478Z,1002.7
2019-04-27T11:26:12.913Z,1002.7
2019-04-27T11:27:14.447Z,1002.7
2019-04-27T11:28:16.012Z,1002.7
2019-04-27T11:29:17.591Z,1002.8
2019-04-27T11:30:19.178Z,1002.8
2019-04-27T11:31:21.103Z,1002.8
2019-04-27T11:32:22.903Z,1002.8
2019-04-27T11:33:26.225Z,1002.9
2019-04-27T11:34:25.907Z,1002.9
2019-04-27T11:35:27.473Z,1002.9
2019-04-27T11:36:29.000Z,1003.0
2019-04-27T11:37:30.500Z,1002.8
2019-04-27T11:38:31.956Z,1002.7
2019-04-27T11:39:33.443Z,1002.8
2019-04-27T11:40:36.382Z,1002.9
2019-04-27T11:41:36.332Z,1002.9
2019-04-27T11:42:37.806Z,1003.0
2019-04-27T11:43:39.364Z,1003.0
2019-04-27T11:44:40.829Z,1002.7
2019-04-27T11:45:42.447Z,1002.7
2019-04-27T11:46:45.511Z,1002.8
2019-04-27T11:47:45.307Z,1002.8
2019-04-27T11:48:46.766Z,1002.9
2019-04-27T11:49:48.256Z,1003.0
2019-04-27T11:50:49.713Z,1003.0
2019-04-27T11:51:51.219Z,1003.2
2019-04-27T11:52:52.725Z,1003.2
2019-04-27T11:53:54.201Z,1003.1
2019-04-27T11:54:55.810Z,1002.9
2019-04-27T11:55:57.227Z,1002.9
2019-04-27T11:56:58.735Z,1003.0
2019-04-27T11:58:00.199Z,1003.1
2019-04-27T11:59:01.586Z,1002.9
2019-04-27T12:00:03.022Z,1002.8
2019-04-27T12:01:04.453Z,1002.7
2019-04-27T12:02:05.894Z,1002.8
2019-04-27T12:03:07.318Z,1002.7
2019-04-27T12:04:08.783Z,1002.8
2019-04-27T12:05:10.244Z,1002.9
2019-04-27T12:06:11.687Z,1002.7
2019-04-27T12:07:13.138Z,1002.5
2019-04-27T12:08:16.073Z,1002.4
2019-04-27T12:09:16.039Z,1002.4
2019-04-27T12:10:17.502Z,1002.2
2019-04-27T12:11:19.020Z,1002.2
2019-04-27T12:12:21.935Z,1002.3
2019-04-27T12:13:21.947Z,1002.3
2019-04-27T12:14:23.423Z,1002.5
2019-04-27T12:15:26.083Z,1002.7
2019-04-27T12:16:26.348Z,1002.9
2019-04-27T12:17:29.213Z,1002.9
2019-04-27T12:18:29.302Z,1002.7
2019-04-27T12:19:30.766Z,1002.7
2019-04-27T12:20:32.300Z,1002.5
2019-04-27T12:21:33.758Z,1002.6
2019-04-27T12:22:35.210Z,1002.4
2019-04-27T12:23:41.162Z,1002.5
2019-04-27T12:24:38.094Z,1002.6
2019-04-27T12:25:39.663Z,1002.5
2019-04-27T12:26:41.138Z,1002.6
2019-04-27T12:27:42.631Z,1002.7
2019-04-27T12:28:45.865Z,1002.7
2019-04-27T12:29:47.184Z,1003.3
2019-04-27T12:30:46.964Z,1003.4
2019-04-27T12:31:49.121Z,1003.3
2019-04-27T12:32:49.887Z,1003.1
2019-04-27T12:33:51.419Z,1002.7
2019-04-27T12:34:52.946Z,1002.6
2019-04-27T12:35:54.382Z,1002.2
2019-04-27T12:36:55.809Z,1002.4
2019-04-27T12:37:57.318Z,1001.9
2019-04-27T12:38:58.782Z,1002.0
2019-04-27T12:40:00.300Z,1002.0
2019-04-27T12:41:01.822Z,1002.3
2019-04-27T12:42:03.353Z,1002.4
2019-04-27T12:43:04.834Z,1002.2
2019-04-27T12:44:07.136Z,1002.3
2019-04-27T12:45:07.664Z,1002.1
2019-04-27T12:46:09.101Z,1002.1
2019-04-27T12:47:10.559Z,1002.0